Wetterdaten: Woche 15.03.10 - 21.03.10 (KW11)
Datum Zeit Temp. A. Feuchte A. Luftdruck Regen Wind Richtung Taupunkt Windchill Windben
15.03.2010 00:00 4,4 C 68 % 1013,6 hPa 0,0 l/m 19,0 km/h W-NW -1,1 C -3,5 C 40,7 km/h
15.03.2010 01:00 4,5 C 67 % 1013,6 hPa 0,0 l/m 17,3 km/h W -1,0 C -2,6 C 40,3 km/h
15.03.2010 02:00 4,3 C 69 % 1013,2 hPa 0,0 l/m 18,5 km/h W -0,9 C -3,4 C 42,3 km/h
15.03.2010 03:00 3,8 C 73 % 1014,2 hPa 0,3 l/m 17,3 km/h NW -0,6 C -3,4 C 39,4 km/h
15.03.2010 04:00 0,8 C 85 % 1016,1 hPa 0,0 l/m 9,4 km/h N-NW -1,4 C -2,1 C 22,9 km/h
15.03.2010 05:00 0,6 C 86 % 1016,2 hPa 0,0 l/m 12,5 km/h W-SW -1,5 C -4,6 C 25,4 km/h
15.03.2010 06:00 0,7 C 79 % 1017,3 hPa 0,0 l/m 13,2 km/h NW -2,6 C -5,0 C 27,0 km/h
15.03.2010 07:00 0,4 C 68 % 1018,6 hPa 0,0 l/m 15,1 km/h NW -4,9 C -6,6 C 30,6 km/h
15.03.2010 08:00 0,6 C 67 % 1019,7 hPa 0,0 l/m 10,1 km/h NW -4,9 C -2,9 C 23,7 km/h
15.03.2010 09:00 1,5 C 62 % 1020,4 hPa 0,5 l/m 10,7 km/h NW -5,1 C -2,3 C 24,9 km/h
15.03.2010 10:00 2,5 C 55 % 1020,6 hPa 0,5 l/m 13,6 km/h NW -5,6 C -3,1 C 27,4 km/h
15.03.2010 11:00 3,4 C 53 % 1020,9 hPa 0,3 l/m 11,8 km/h W-NW -5,3 C -0,8 C 25,3 km/h
15.03.2010 12:00 4,0 C 52 % 1020,8 hPa 0,0 l/m 12,3 km/h W -4,9 C -0,6 C 27,3 km/h
15.03.2010 13:00 4,4 C 47 % 1020,6 hPa 0,0 l/m 11,7 km/h W-SW -5,9 C 0,3 C 30,2 km/h
15.03.2010 14:00 4,1 C 46 % 1020,3 hPa 0,0 l/m 14,1 km/h N-NW -6,5 C -1,5 C 29,8 km/h
15.03.2010 15:00 4,2 C 56 % 1020,3 hPa 0,0 l/m 10,6 km/h SW -3,8 C 0,8 C 24,9 km/h
15.03.2010 16:00 4,1 C 61 % 1020,2 hPa 0,0 l/m 8,3 km/h W -2,9 C 2,4 C 23,7 km/h
15.03.2010 17:00 3,3 C 68 % 1019,8 hPa 0,0 l/m 6,5 km/h W -2,0 C 3,0 C 23,0 km/h
15.03.2010 18:00 3,2 C 69 % 1019,6 hPa 0,0 l/m 8,4 km/h SW -1,9 C 1,5 C 22,1 km/h
15.03.2010 19:00 3,6 C 67 % 1019,2 hPa 0,0 l/m 8,4 km/h W-NW -2,0 C 1,9 C 23,7 km/h
15.03.2010 20:00 4,0 C 71 % 1018,9 hPa 0,0 l/m 8,8 km/h W-SW -0,8 C 1,8 C 25,0 km/h
15.03.2010 21:00 3,8 C 78 % 1018,3 hPa 0,3 l/m 4,4 km/h W-SW 0,3 C 3,8 C 18,5 km/h
15.03.2010 22:00 4,8 C 74 % 1016,9 hPa 0,0 l/m 9,9 km/h S-SW 0,5 C 2,1 C 31,8 km/h
15.03.2010 23:00 5,6 C 68 % 1016,0 hPa 0,0 l/m 15,2 km/h W 0,1 C -0,2 C 37,4 km/h
16.03.2010 00:00 5,2 C 71 % 1015,3 hPa 0,0 l/m 16,0 km/h W-SW 0,4 C -1,2 C 39,4 km/h
16.03.2010 01:00 5,0 C 72 % 1015,0 hPa 0,0 l/m 16,5 km/h W 0,4 C -1,7 C 39,0 km/h
16.03.2010 02:00 5,0 C 72 % 1014,6 hPa 0,0 l/m 18,1 km/h W 0,4 C -2,4 C 44,3 km/h
16.03.2010 03:00 5,1 C 72 % 1014,3 hPa 0,0 l/m 17,5 km/h W 0,5 C -2,0 C 38,2 km/h
16.03.2010 04:00 5,0 C 73 % 1014,7 hPa 0,0 l/m 17,0 km/h W-SW 0,6 C -1,9 C 40,3 km/h
16.03.2010 05:00 4,8 C 75 % 1015,1 hPa 0,0 l/m 13,8 km/h W-SW 0,7 C -0,5 C 32,6 km/h
16.03.2010 06:00 4,9 C 75 % 1015,3 hPa 0,0 l/m 14,1 km/h W 0,8 C -0,6 C 32,2 km/h
16.03.2010 07:00 5,2 C 73 % 1015,5 hPa 0,0 l/m 11,8 km/h W 0,8 C 1,1 C 28,2 km/h
16.03.2010 08:00 5,7 C 72 % 1016,5 hPa 0,0 l/m 10,7 km/h W 1,0 C 2,4 C 26,5 km/h
16.03.2010 09:00 5,3 C 75 % 1017,8 hPa 0,5 l/m 11,1 km/h NO 1,2 C 1,7 C 27,0 km/h
16.03.2010 10:00 2,5 C 87 % 1019,6 hPa 1,0 l/m 6,9 km/h W-NW 0,6 C 1,6 C 17,3 km/h
16.03.2010 11:00 3,1 C 88 % 1020,1 hPa 0,8 l/m 6,4 km/h NW 1,2 C 3,1 C 16,1 km/h
16.03.2010 12:00 4,1 C 85 % 1020,5 hPa 0,0 l/m 6,8 km/h NW 1,8 C 3,7 C 16,1 km/h
16.03.2010 13:00 3,5 C 86 % 1020,9 hPa 1,0 l/m 5,2 km/h NW 1,4 C 3,0 C 14,9 km/h
16.03.2010 14:00 4,5 C 83 % 1020,7 hPa 0,0 l/m 3,1 km/h NW 1,8 C 4,5 C 9,6 km/h
16.03.2010 15:00 4,4 C 79 % 1021,3 hPa 0,0 l/m 5,1 km/h NW 1,1 C 4,3 C 14,1 km/h
16.03.2010 16:00 4,5 C 75 % 1021,9 hPa 0,0 l/m 4,8 km/h NW 0,4 C 4,5 C 11,7 km/h
16.03.2010 17:00 4,3 C 73 % 1022,7 hPa 0,0 l/m 3,4 km/h N-NW -0,1 C 4,3 C 9,3 km/h
16.03.2010 18:00 3,9 C 74 % 1023,7 hPa 0,0 l/m 2,2 km/h N-NW -0,3 C 3,9 C 6,4 km/h
16.03.2010 19:00 3,7 C 73 % 1025,0 hPa 0,0 l/m 3,2 km/h N -0,6 C 3,7 C 10,0 km/h
16.03.2010 20:00 3,4 C 72 % 1026,1 hPa 0,0 l/m 4,6 km/h N-NO -1,2 C 3,4 C 13,3 km/h
16.03.2010 21:00 3,1 C 67 % 1026,9 hPa 0,0 l/m 8,1 km/h W -2,4 C 1,6 C 20,5 km/h
16.03.2010 22:00 3,0 C 65 % 1027,2 hPa 0,0 l/m 6,2 km/h NW -3,0 C 2,6 C 16,9 km/h
16.03.2010 23:00 2,9 C 65 % 1027,5 hPa 0,0 l/m 2,8 km/h W -2,9 C 2,9 C 8,4 km/h
17.03.2010 00:00 2,8 C 67 % 1027,7 hPa 0,0 l/m 3,3 km/h NW -2,6 C 2,8 C 9,3 km/h
17.03.2010 01:00 2,8 C 71 % 1028,0 hPa 0,3 l/m 3,7 km/h NW -2,0 C 2,8 C 10,9 km/h
17.03.2010 02:00 2,9 C 71 % 1028,2 hPa 0,0 l/m 3,8 km/h NW -1,9 C 2,9 C 12,5 km/h
17.03.2010 03:00 2,8 C 73 % 1028,2 hPa 0,0 l/m 2,3 km/h N-NW -1,6 C 2,8 C 7,2 km/h
17.03.2010 04:00 2,4 C 77 % 1028,4 hPa 0,0 l/m 0,1 km/h N -1,3 C 2,4 C 1,6 km/h
17.03.2010 05:00 1,9 C 80 % 1028,6 hPa 0,0 l/m 0,0 km/h N -1,2 C 1,9 C 0,8 km/h
17.03.2010 06:00 1,9 C 82 % 1028,7 hPa 0,0 l/m 0,0 km/h N -0,8 C 1,9 C 0,0 km/h
17.03.2010 07:00 2,7 C 82 % 1029,2 hPa 0,0 l/m 0,0 km/h N -0,1 C 2,7 C 0,8 km/h
17.03.2010 08:00 3,2 C 81 % 1029,6 hPa 0,0 l/m 0,1 km/h S 0,3 C 3,2 C 2,4 km/h
17.03.2010 09:00 4,2 C 80 % 1029,6 hPa 0,0 l/m 1,5 km/h S 1,1 C 4,2 C 8,4 km/h
17.03.2010 10:00 5,4 C 78 % 1029,3 hPa 0,0 l/m 4,1 km/h S 1,9 C 5,4 C 12,9 km/h
17.03.2010 11:00 6,3 C 76 % 1029,0 hPa 0,0 l/m 3,4 km/h S-SO 2,5 C 6,3 C 12,5 km/h
17.03.2010 12:00 7,6 C 72 % 1028,5 hPa 0,0 l/m 3,1 km/h S 2,9 C 7,6 C 10,9 km/h
17.03.2010 13:00 8,9 C 61 % 1027,9 hPa 0,0 l/m 4,6 km/h W 1,9 C 8,9 C 13,7 km/h
17.03.2010 14:00 9,4 C 56 % 1027,4 hPa 0,0 l/m 8,2 km/h W-SW 1,0 C 8,1 C 20,5 km/h
17.03.2010 15:00 9,8 C 57 % 1027,1 hPa 0,0 l/m 5,5 km/h W-SW 1,6 C 9,4 C 15,3 km/h
17.03.2010 16:00 9,6 C 57 % 1026,9 hPa 0,0 l/m 5,3 km/h SW 1,5 C 9,6 C 15,3 km/h
17.03.2010 17:00 8,6 C 59 % 1027,1 hPa 0,0 l/m 2,6 km/h SW 1,1 C 8,6 C 9,3 km/h
17.03.2010 18:00 7,3 C 63 % 1027,5 hPa 0,0 l/m 0,6 km/h N 0,6 C 7,3 C 4,8 km/h
17.03.2010 19:00 4,4 C 75 % 1027,9 hPa 0,0 l/m 0,1 km/h SW 0,4 C 4,4 C 0,8 km/h
17.03.2010 20:00 4,2 C 77 % 1027,9 hPa 0,0 l/m 1,8 km/h SW 0,5 C 4,2 C 6,4 km/h
17.03.2010 21:00 3,5 C 78 % 1027,9 hPa 0,0 l/m 1,2 km/h SW -0,0 C 3,5 C 6,0 km/h
17.03.2010 22:00 2,7 C 80 % 1027,8 hPa 0,0 l/m 0,4 km/h N -0,4 C 2,7 C 4,0 km/h
17.03.2010 23:00 2,1 C 82 % 1027,7 hPa 0,0 l/m 0,4 km/h N -0,7 C 2,1 C 3,2 km/h
18.03.2010 00:00 2,4 C 83 % 1027,8 hPa 0,0 l/m 1,5 km/h SW -0,2 C 2,4 C 6,8 km/h
18.03.2010 01:00 2,2 C 83 % 1027,9 hPa 0,0 l/m 1,2 km/h W-SW -0,4 C 2,2 C 6,4 km/h
18.03.2010 02:00 2,0 C 83 % 1027,5 hPa 0,0 l/m 1,4 km/h W-SW -0,5 C 2,0 C 5,6 km/h
18.03.2010 03:00 1,9 C 84 % 1027,2 hPa 0,0 l/m 1,6 km/h SW -0,6 C 1,9 C 7,6 km/h
18.03.2010 04:00 1,7 C 83 % 1027,3 hPa 0,0 l/m 0,9 km/h S-SW -0,9 C 1,7 C 5,6 km/h
18.03.2010 05:00 0,9 C 82 % 1027,3 hPa 0,0 l/m 1,4 km/h W-SW -1,9 C 0,9 C 7,3 km/h
18.03.2010 06:00 -0,7 C 82 % 1027,5 hPa 0,0 l/m 0,0 km/h N -3,4 C -0,7 C 0,4 km/h
18.03.2010 07:00 0,8 C 86 % 1027,6 hPa 0,0 l/m 0,8 km/h SW -1,3 C 0,8 C 4,4 km/h
18.03.2010 08:00 5,4 C 78 % 1027,6 hPa 0,0 l/m 1,2 km/h O 1,8 C 5,4 C 3,6 km/h
18.03.2010 09:00 8,1 C 69 % 1027,7 hPa 0,0 l/m 2,6 km/h O 2,7 C 8,1 C 6,4 km/h
18.03.2010 10:00 11,7 C 53 % 1027,6 hPa 0,0 l/m 2,4 km/h O-SO 2,5 C 11,7 C 7,2 km/h
18.03.2010 11:00 14,0 C 39 % 1027,5 hPa 0,0 l/m 7,3 km/h NW 0,2 C 13,1 C 17,3 km/h
18.03.2010 12:00 14,7 C 37 % 1027,2 hPa 0,0 l/m 7,4 km/h W-NW 0,2 C 14,1 C 18,5 km/h
18.03.2010 13:00 15,2 C 36 % 1026,6 hPa 0,0 l/m 8,0 km/h W 0,0 C 14,4 C 20,1 km/h
18.03.2010 14:00 15,9 C 32 % 1026,2 hPa 0,0 l/m 6,3 km/h NW -0,7 C 15,8 C 17,7 km/h
18.03.2010 15:00 15,8 C 33 % 1025,8 hPa 0,0 l/m 5,0 km/h N-NW -0,4 C 15,8 C 14,1 km/h
18.03.2010 16:00 15,6 C 33 % 1025,4 hPa 0,0 l/m 2,3 km/h N-NO -0,6 C 15,6 C 8,0 km/h
18.03.2010 17:00 14,1 C 37 % 1025,3 hPa 0,0 l/m 0,6 km/h NO -0,3 C 14,1 C 4,0 km/h
18.03.2010 18:00 10,8 C 46 % 1025,6 hPa 0,0 l/m 0,3 km/h N -0,4 C 10,8 C 1,2 km/h
18.03.2010 19:00 6,7 C 62 % 1025,7 hPa 0,0 l/m 0,0 km/h N -0,1 C 6,7 C 1,6 km/h
18.03.2010 20:00 4,9 C 69 % 1025,4 hPa 0,0 l/m 0,0 km/h N -0,3 C 4,9 C 1,2 km/h
18.03.2010 21:00 3,1 C 75 % 1025,0 hPa 0,0 l/m 0,1 km/h N -1,0 C 3,1 C 1,2 km/h
18.03.2010 22:00 1,6 C 80 % 1024,5 hPa 0,0 l/m 0,0 km/h N -1,4 C 1,6 C 0,4 km/h
18.03.2010 23:00 0,9 C 83 % 1024,0 hPa 0,0 l/m 0,0 km/h N -1,6 C 0,9 C 0,8 km/h
19.03.2010 00:00 0,3 C 85 % 1023,5 hPa 0,0 l/m 0,0 km/h N -1,9 C 0,3 C 0,8 km/h
19.03.2010 01:00 0,2 C 86 % 1023,2 hPa 0,0 l/m 0,0 km/h N -1,9 C 0,2 C 0,4 km/h
19.03.2010 02:00 0,1 C 86 % 1022,9 hPa 0,0 l/m 0,0 km/h N -2,0 C 0,1 C 0,0 km/h
19.03.2010 03:00 -0,3 C 87 % 1022,8 hPa 0,0 l/m 0,0 km/h N -2,2 C -0,3 C 0,4 km/h
19.03.2010 04:00 -0,5 C 87 % 1023,0 hPa 0,0 l/m 0,0 km/h N -2,4 C -0,5 C 1,2 km/h
19.03.2010 05:00 -0,3 C 87 % 1023,3 hPa 0,0 l/m 0,0 km/h N -2,2 C -0,3 C 0,4 km/h
19.03.2010 06:00 -0,1 C 87 % 1023,7 hPa 0,0 l/m 0,0 km/h N -2,0 C -0,1 C 0,0 km/h
19.03.2010 07:00 2,1 C 84 % 1024,0 hPa 0,0 l/m 0,0 km/h N -0,4 C 2,1 C 0,0 km/h
19.03.2010 08:00 5,0 C 78 % 1024,4 hPa 0,0 l/m 0,3 km/h N 1,5 C 5,0 C 2,8 km/h
19.03.2010 09:00 6,9 C 74 % 1024,5 hPa 0,0 l/m 0,9 km/h NO 2,6 C 6,9 C 4,4 km/h
19.03.2010 10:00 9,2 C 65 % 1024,6 hPa 0,0 l/m 1,7 km/h O-NO 3,0 C 9,2 C 5,2 km/h
19.03.2010 11:00 11,9 C 55 % 1024,5 hPa 0,0 l/m 2,5 km/h O-SO 3,2 C 11,9 C 6,0 km/h
19.03.2010 12:00 14,9 C 45 % 1024,0 hPa 0,0 l/m 3,7 km/h O-NO 2,7 C 14,8 C 13,3 km/h
19.03.2010 13:00 17,8 C 29 % 1023,1 hPa 0,0 l/m 12,3 km/h W-SW -0,6 C 15,4 C 34,6 km/h
19.03.2010 14:00 18,4 C 27 % 1022,4 hPa 0,0 l/m 10,7 km/h S-SO -0,9 C 16,6 C 26,5 km/h
19.03.2010 15:00 18,6 C 29 % 1022,3 hPa 0,0 l/m 6,6 km/h SO 0,1 C 18,4 C 18,5 km/h
19.03.2010 16:00 16,7 C 42 % 1022,1 hPa 0,0 l/m 3,2 km/h S-SO 3,5 C 16,7 C 12,5 km/h
19.03.2010 17:00 15,7 C 45 % 1022,0 hPa 0,0 l/m 3,8 km/h S 3,9 C 15,7 C 12,9 km/h
19.03.2010 18:00 14,2 C 46 % 1022,0 hPa 0,0 l/m 1,9 km/h S 2,7 C 14,2 C 7,2 km/h
19.03.2010 19:00 11,7 C 52 % 1021,9 hPa 0,0 l/m 0,9 km/h S-SO 2,1 C 11,7 C 4,0 km/h
19.03.2010 20:00 8,2 C 65 % 1021,8 hPa 0,0 l/m 0,1 km/h N 2,0 C 8,2 C 1,2 km/h
19.03.2010 21:00 6,6 C 74 % 1021,5 hPa 0,0 l/m 0,0 km/h N 2,2 C 6,6 C 0,8 km/h
19.03.2010 22:00 5,1 C 78 % 1021,0 hPa 0,0 l/m 0,0 km/h N 1,5 C 5,1 C 0,0 km/h
19.03.2010 23:00 3,6 C 83 % 1020,3 hPa 0,0 l/m 0,0 km/h N 0,9 C 3,6 C 0,4 km/h
20.03.2010 00:00 3,0 C 84 % 1019,8 hPa 0,0 l/m 0,0 km/h N 0,6 C 3,0 C 0,8 km/h
20.03.2010 01:00 1,9 C 86 % 1019,7 hPa 0,0 l/m 0,0 km/h N -0,2 C 1,9 C 0,0 km/h
20.03.2010 02:00 1,3 C 88 % 1019,2 hPa 0,0 l/m 0,0 km/h N -0,4 C 1,3 C 0,0 km/h
20.03.2010 03:00 0,8 C 90 % 1018,8 hPa 0,0 l/m 0,0 km/h N -0,7 C 0,8 C 0,0 km/h
20.03.2010 04:00 0,3 C 90 % 1018,5 hPa 0,0 l/m 0,0 km/h N -1,1 C 0,3 C 0,0 km/h
20.03.2010 05:00 -0,4 C 91 % 1018,7 hPa 0,0 l/m 0,0 km/h N -1,7 C -0,4 C 0,0 km/h
20.03.2010 06:00 -0,2 C 91 % 1018,9 hPa 0,0 l/m 0,0 km/h N -1,5 C -0,2 C 0,4 km/h
20.03.2010 07:00 3,6 C 87 % 1018,6 hPa 0,0 l/m 0,2 km/h N 1,6 C 3,6 C 1,2 km/h
20.03.2010 08:00 5,6 C 79 % 1019,0 hPa 0,0 l/m 1,3 km/h NO 2,3 C 5,6 C 4,0 km/h
20.03.2010 09:00 7,1 C 74 % 1018,9 hPa 0,0 l/m 1,1 km/h O 2,7 C 7,1 C 4,0 km/h
20.03.2010 10:00 9,8 C 66 % 1018,6 hPa 0,0 l/m 1,6 km/h O-NO 3,6 C 9,8 C 5,2 km/h
20.03.2010 11:00 11,8 C 58 % 1018,1 hPa 0,0 l/m 2,7 km/h O-SO 3,7 C 11,8 C 7,2 km/h
20.03.2010 12:00 13,8 C 55 % 1017,5 hPa 0,0 l/m 2,5 km/h O 5,0 C 13,8 C 6,8 km/h
20.03.2010 13:00 14,9 C 48 % 1017,1 hPa 0,0 l/m 1,4 km/h SO 4,1 C 14,9 C 6,4 km/h
20.03.2010 14:00 15,0 C 48 % 1016,9 hPa 0,0 l/m 0,3 km/h S 4,2 C 15,0 C 3,6 km/h
20.03.2010 15:00 16,1 C 48 % 1016,6 hPa 0,0 l/m 0,9 km/h S 4,9 C 16,1 C 5,6 km/h
20.03.2010 16:00 16,5 C 46 % 1016,1 hPa 0,0 l/m 1,5 km/h S-SO 4,7 C 16,5 C 7,6 km/h
20.03.2010 17:00 15,1 C 52 % 1016,1 hPa 0,0 l/m 0,1 km/h N 5,2 C 15,1 C 2,8 km/h
20.03.2010 18:00 11,7 C 64 % 1016,2 hPa 0,0 l/m 0,0 km/h N 5,1 C 11,7 C 0,0 km/h
20.03.2010 19:00 10,2 C 71 % 1016,2 hPa 0,0 l/m 0,0 km/h N 5,0 C 10,2 C 0,8 km/h
20.03.2010 20:00 9,8 C 73 % 1015,8 hPa 0,0 l/m 0,2 km/h N 5,2 C 9,8 C 2,4 km/h
20.03.2010 21:00 8,9 C 75 % 1015,6 hPa 0,0 l/m 0,0 km/h N 4,7 C 8,9 C 0,0 km/h
20.03.2010 22:00 8,9 C 76 % 1015,5 hPa 0,0 l/m 0,1 km/h N 4,9 C 8,9 C 2,0 km/h
20.03.2010 23:00 8,4 C 79 % 1015,4 hPa 0,0 l/m 0,1 km/h N 5,0 C 8,4 C 2,0 km/h
21.03.2010 00:00 8,3 C 78 % 1015,3 hPa 0,0 l/m 0,4 km/h N 4,7 C 8,3 C 4,0 km/h
21.03.2010 01:00 7,9 C 81 % 1015,5 hPa 0,0 l/m 0,3 km/h N 4,8 C 7,9 C 3,2 km/h
21.03.2010 02:00 9,8 C 75 % 1015,2 hPa 0,0 l/m 0,2 km/h O-SO 5,6 C 9,8 C 2,8 km/h
21.03.2010 03:00 8,8 C 80 % 1014,8 hPa 0,0 l/m 0,6 km/h N 5,5 C 8,8 C 2,8 km/h
21.03.2010 04:00 8,3 C 85 % 1014,7 hPa 0,0 l/m 0,5 km/h N 5,8 C 8,3 C 4,8 km/h
21.03.2010 05:00 7,9 C 89 % 1014,7 hPa 0,0 l/m 0,1 km/h N 6,2 C 7,9 C 1,6 km/h
21.03.2010 06:00 7,4 C 88 % 1015,0 hPa 0,0 l/m 0,0 km/h N 5,5 C 7,4 C 0,8 km/h
21.03.2010 07:00 8,5 C 86 % 1015,3 hPa 0,0 l/m 0,0 km/h N 6,3 C 8,5 C 1,2 km/h
21.03.2010 08:00 10,6 C 76 % 1015,1 hPa 0,0 l/m 0,1 km/h N 6,6 C 10,6 C 2,4 km/h
21.03.2010 09:00 14,1 C 62 % 1014,9 hPa 0,0 l/m 1,0 km/h O-SO 6,9 C 14,1 C 6,9 km/h
21.03.2010 10:00 15,5 C 56 % 1014,9 hPa 0,0 l/m 2,4 km/h S 6,8 C 15,5 C 10,1 km/h
21.03.2010 11:00 15,7 C 60 % 1015,5 hPa 0,0 l/m 0,1 km/h N 7,8 C 15,7 C 1,6 km/h
21.03.2010 12:00 15,5 C 63 % 1016,1 hPa 0,0 l/m 1,4 km/h NO 8,5 C 15,5 C 4,4 km/h
21.03.2010 13:00 17,4 C 55 % 1015,5 hPa 0,3 l/m 10,3 km/h NW 8,3 C 15,6 C 29,0 km/h
21.03.2010 14:00 16,6 C 59 % 1015,6 hPa 0,0 l/m 11,3 km/h W 8,6 C 14,5 C 29,3 km/h
21.03.2010 15:00 16,6 C 60 % 1015,9 hPa 0,0 l/m 7,6 km/h NW 8,8 C 16,0 C 20,5 km/h
21.03.2010 16:00 16,2 C 62 % 1016,3 hPa 0,3 l/m 6,8 km/h W 8,8 C 15,6 C 20,1 km/h
21.03.2010 17:00 16,2 C 61 % 1016,4 hPa 0,0 l/m 4,8 km/h W-SW 8,7 C 16,1 C 15,3 km/h
21.03.2010 18:00 14,9 C 65 % 1016,6 hPa 0,0 l/m 1,2 km/h W-SW 8,4 C 14,9 C 7,6 km/h
21.03.2010 19:00 14,6 C 64 % 1017,2 hPa 0,0 l/m 2,5 km/h W-SW 7,8 C 14,6 C 8,9 km/h
21.03.2010 20:00 12,9 C 69 % 1017,6 hPa 0,0 l/m 0,5 km/h N 7,3 C 12,9 C 3,6 km/h
21.03.2010 21:00 12,9 C 73 % 1018,0 hPa 0,3 l/m 1,7 km/h W-NW 8,2 C 12,9 C 8,5 km/h
21.03.2010 22:00 13,4 C 76 % 1018,5 hPa 0,0 l/m 2,3 km/h N-NW 9,2 C 13,3 C 8,4 km/h
21.03.2010 23:00 12,6 C 77 % 1019,1 hPa 0,0 l/m 0,6 km/h N 8,5 C 12,6 C 4,0 km/h
Min-Datum _ 18.03.10 19.03.10 15.03.10 - 17.03.10 - 15.03.10 15.03.10 17.03.10
_ Min-Zeit 06:45 15:00 02:30 - 04:30 - 14:30 07:15 04:30
Minimum _ -1,0 C 26 % 1013,1 hPa - 0,0 km/h - -6,7 C -7,2 C 0,0 km/h
Max-Datum _ 19.03.10 20.03.10 17.03.10 16.03.10 15.03.10 - 21.03.10 19.03.10 16.03.10
_ Max-Zeit 15:30 04:30 08:45 10:00 00:15 - 21:45 15:30 04:30
Maximum _ 19,1 C 91 % 1029,7 hPa 1,0 l/m 22,1 km/h
W-NW
- 9,4 C 19,1 C 49,9 km/h
W
Durchschnitt _ 6,8 C 69 % 1021,3 hPa #6,2 l/m 4,3 km/h NW 1,1 C 5,8 C 11,9 km/h